4XHLI LLMZ-LLEV
Flight info
| Callsign | 4XHLI |
|---|---|
| Flight time | N/A |
| Altitude | 1200 |
| Route | LSA |
| Aircraft | FDCT/L-VGD/A |
Departure
| Time | 2026-04-16 09:56 |
|---|---|
| Airport | Bar Yehuda Airfield (LLMZ) |
Arrival
| Time | N/A |
|---|---|
| Airport | LLEV |
| Time | Latitude | Longitude | Altitude | Speed | Heading |
|---|---|---|---|---|---|
| 2026-04-16 09:45 | 31.32953 | 35.38801 | -1239 ft | 0 kts | 127° |
| 2026-04-16 09:46 | 31.32944 | 35.38833 | -1241 ft | 4 kts | 104° |
| 2026-04-16 09:46 | 31.32944 | 35.38834 | -1241 ft | 0 kts | 105° |
| 2026-04-16 09:47 | 31.32942 | 35.38848 | -1246 ft | 12 kts | 104° |
| 2026-04-16 09:47 | 31.32817 | 35.38853 | -1243 ft | 22 kts | 184° |
| 2026-04-16 09:47 | 31.32629 | 35.38815 | -1253 ft | 29 kts | 184° |
| 2026-04-16 09:48 | 31.32421 | 35.38769 | -1257 ft | 19 kts | 194° |
| 2026-04-16 09:48 | 31.32325 | 35.38737 | -1258 ft | 19 kts | 209° |
| 2026-04-16 09:48 | 31.32290 | 35.38728 | -1259 ft | 0 kts | 76° |
| 2026-04-16 09:49 | 31.32292 | 35.38733 | -1259 ft | 3 kts | 57° |
| 2026-04-16 09:49 | 31.32384 | 35.38763 | -1257 ft | 35 kts | 9° |
| 2026-04-16 09:49 | 31.32763 | 35.38832 | -1229 ft | 71 kts | 4° |
| 2026-04-16 09:49 | 31.33304 | 35.38941 | -1162 ft | 77 kts | 12° |
| 2026-04-16 09:50 | 31.33845 | 35.39082 | -1056 ft | 81 kts | 17° |
| 2026-04-16 09:50 | 31.34371 | 35.39266 | -881 ft | 76 kts | 39° |
| 2026-04-16 09:50 | 31.34386 | 35.39897 | -943 ft | 85 kts | 106° |
| 2026-04-16 09:50 | 31.34229 | 35.40558 | -959 ft | 94 kts | 109° |
| 2026-04-16 09:51 | 31.33800 | 35.40961 | -832 ft | 81 kts | 179° |
| 2026-04-16 09:51 | 31.33222 | 35.40860 | -721 ft | 79 kts | 189° |
| 2026-04-16 09:51 | 31.32665 | 35.40724 | -718 ft | 89 kts | 184° |
| 2026-04-16 09:51 | 31.32043 | 35.40653 | -757 ft | 89 kts | 175° |
| 2026-04-16 09:52 | 31.31416 | 35.40651 | -845 ft | 93 kts | 182° |
| 2026-04-16 09:52 | 31.30797 | 35.40521 | -845 ft | 88 kts | 190° |
| 2026-04-16 09:52 | 31.30383 | 35.40048 | -867 ft | 88 kts | 254° |
| 2026-04-16 09:52 | 31.30560 | 35.39421 | -923 ft | 84 kts | 317° |
| 2026-04-16 09:53 | 31.31045 | 35.39188 | -1004 ft | 75 kts | 344° |
| 2026-04-16 09:53 | 31.31425 | 35.38804 | -1090 ft | 67 kts | 313° |
| 2026-04-16 09:53 | 31.31805 | 35.38628 | -1171 ft | 61 kts | 12° |
| 2026-04-16 09:53 | 31.32220 | 35.38711 | -1244 ft | 55 kts | 11° |
| 2026-04-16 09:54 | 31.32559 | 35.38798 | -1245 ft | 48 kts | 1° |
| 2026-04-16 09:54 | 31.32934 | 35.38766 | -1154 ft | 61 kts | 348° |
| 2026-04-16 09:54 | 31.33428 | 35.38778 | -1079 ft | 80 kts | 10° |
| 2026-04-16 09:54 | 31.33901 | 35.38979 | -888 ft | 79 kts | 31° |
| 2026-04-16 09:55 | 31.34489 | 35.39005 | -861 ft | 86 kts | 353° |
| 2026-04-16 09:55 | 31.35058 | 35.38884 | -754 ft | 86 kts | 2° |
| 2026-04-16 09:55 | 31.35685 | 35.38908 | -736 ft | 95 kts | 0° |
| 2026-04-16 09:55 | 31.36326 | 35.38862 | -684 ft | 93 kts | 3° |
| 2026-04-16 09:56 | 31.36984 | 35.38873 | -697 ft | 95 kts | 357° |
| 2026-04-16 09:56 | 31.37618 | 35.38881 | -727 ft | 91 kts | 18° |
| 2026-04-16 09:56 | 31.38257 | 35.38872 | -701 ft | 92 kts | 2° |
| 2026-04-16 09:56 | 31.38864 | 35.38876 | -553 ft | 83 kts | 0° |
| 2026-04-16 09:57 | 31.39440 | 35.38870 | -415 ft | 83 kts | 6° |
| 2026-04-16 09:57 | 31.40008 | 35.39025 | -323 ft | 82 kts | 24° |
| 2026-04-16 09:57 | 31.40544 | 35.39159 | -149 ft | 77 kts | 9° |
| 2026-04-16 09:57 | 31.41069 | 35.39170 | 41 ft | 76 kts | 5° |
| 2026-04-16 09:58 | 31.41607 | 35.39170 | 199 ft | 81 kts | 4° |
| 2026-04-16 09:58 | 31.42193 | 35.39200 | 337 ft | 85 kts | 10° |
| 2026-04-16 09:58 | 31.42842 | 35.39271 | 356 ft | 95 kts | 8° |
| 2026-04-16 09:58 | 31.43485 | 35.39318 | 457 ft | 92 kts | 6° |
| 2026-04-16 09:59 | 31.44080 | 35.39287 | 755 ft | 82 kts | 345° |
| 2026-04-16 09:59 | 31.44628 | 35.38996 | 916 ft | 87 kts | 354° |
| 2026-04-16 09:59 | 31.45289 | 35.39159 | 713 ft | 105 kts | 23° |
| 2026-04-16 09:59 | 31.45981 | 35.39428 | 626 ft | 104 kts | 22° |
| 2026-04-16 10:00 | 31.46674 | 35.39713 | 585 ft | 99 kts | 26° |
| 2026-04-16 10:00 | 31.47315 | 35.39891 | 770 ft | 93 kts | 15° |
| 2026-04-16 10:00 | 31.48016 | 35.39927 | 627 ft | 102 kts | 357° |
| 2026-04-16 10:01 | 31.49324 | 35.39571 | 908 ft | 99 kts | 349° |
| 2026-04-16 10:01 | 31.49997 | 35.39481 | 967 ft | 94 kts | 3° |
| 2026-04-16 10:01 | 31.50665 | 35.39481 | 924 ft | 99 kts | 6° |
| 2026-04-16 10:01 | 31.51359 | 35.39407 | 893 ft | 100 kts | 352° |
| 2026-04-16 10:02 | 31.52043 | 35.39449 | 879 ft | 100 kts | 15° |
| 2026-04-16 10:02 | 31.52700 | 35.39643 | 917 ft | 93 kts | 20° |
| 2026-04-16 10:02 | 31.53331 | 35.39794 | 917 ft | 98 kts | 15° |
| 2026-04-16 10:02 | 31.54018 | 35.39924 | 848 ft | 102 kts | 11° |
| 2026-04-16 10:03 | 31.54687 | 35.40027 | 918 ft | 97 kts | 14° |
| 2026-04-16 10:03 | 31.55388 | 35.40144 | 863 ft | 102 kts | 14° |
| 2026-04-16 10:03 | 31.56068 | 35.40331 | 786 ft | 101 kts | 15° |
| 2026-04-16 10:03 | 31.56764 | 35.40495 | 712 ft | 99 kts | 11° |
| 2026-04-16 10:04 | 31.57438 | 35.40571 | 665 ft | 94 kts | 6° |
| 2026-04-16 10:04 | 31.58075 | 35.40592 | 720 ft | 90 kts | 9° |
| 2026-04-16 10:04 | 31.58688 | 35.40727 | 785 ft | 91 kts | 19° |
| 2026-04-16 10:04 | 31.59290 | 35.40933 | 823 ft | 83 kts | 20° |
| 2026-04-16 10:05 | 31.59872 | 35.41129 | 703 ft | 93 kts | 21° |
| 2026-04-16 10:05 | 31.60479 | 35.41333 | 850 ft | 91 kts | 19° |
| 2026-04-16 10:05 | 31.61099 | 35.41504 | 965 ft | 92 kts | 18° |
| 2026-04-16 10:05 | 31.61740 | 35.41670 | 1020 ft | 99 kts | 18° |
| 2026-04-16 10:06 | 31.62407 | 35.41872 | 852 ft | 98 kts | 20° |
| 2026-04-16 10:06 | 31.63052 | 35.42072 | 831 ft | 93 kts | 21° |
| 2026-04-16 10:06 | 31.63646 | 35.42303 | 875 ft | 89 kts | 25° |
| 2026-04-16 10:06 | 31.64221 | 35.42611 | 875 ft | 93 kts | 38° |
| 2026-04-16 10:07 | 31.64814 | 35.42923 | 885 ft | 92 kts | 26° |
| 2026-04-16 10:07 | 31.65423 | 35.43133 | 926 ft | 92 kts | 21° |
| 2026-04-16 10:07 | 31.66012 | 35.43402 | 957 ft | 90 kts | 29° |
| 2026-04-16 10:07 | 31.66613 | 35.43664 | 981 ft | 94 kts | 20° |
| 2026-04-16 10:08 | 31.67271 | 35.43770 | 966 ft | 99 kts | 15° |
| 2026-04-16 10:08 | 31.67926 | 35.44005 | 880 ft | 98 kts | 29° |
| 2026-04-16 10:08 | 31.68532 | 35.44325 | 944 ft | 93 kts | 26° |
| 2026-04-16 10:08 | 31.69159 | 35.44607 | 925 ft | 101 kts | 21° |
| 2026-04-16 10:09 | 31.69849 | 35.44824 | 865 ft | 103 kts | 18° |
| 2026-04-16 10:09 | 31.70512 | 35.45010 | 953 ft | 93 kts | 23° |
| 2026-04-16 10:09 | 31.71159 | 35.45211 | 818 ft | 92 kts | 21° |
| 2026-04-16 10:09 | 31.71779 | 35.45400 | 693 ft | 95 kts | 21° |
| 2026-04-16 10:10 | 31.72403 | 35.45551 | 652 ft | 87 kts | 13° |
| 2026-04-16 10:10 | 31.72973 | 35.45622 | 657 ft | 82 kts | 11° |
| 2026-04-16 10:10 | 31.73520 | 35.45717 | 744 ft | 80 kts | 12° |
| 2026-04-16 10:10 | 31.74064 | 35.45791 | 774 ft | 77 kts | 14° |
| 2026-04-16 10:11 | 31.74594 | 35.45906 | 807 ft | 79 kts | 18° |
| 2026-04-16 10:11 | 31.75138 | 35.46054 | 805 ft | 82 kts | 19° |
| 2026-04-16 10:11 | 31.75716 | 35.46128 | 816 ft | 85 kts | 3° |
| 2026-04-16 10:11 | 31.76321 | 35.46126 | 790 ft | 90 kts | 4° |
| 2026-04-16 10:12 | 31.76952 | 35.46103 | 763 ft | 91 kts | 359° |
| 2026-04-16 10:12 | 31.77571 | 35.46032 | 790 ft | 88 kts | 358° |
| 2026-04-16 10:12 | 31.78191 | 35.45957 | 765 ft | 91 kts | 358° |
| 2026-04-16 10:12 | 31.78810 | 35.45891 | 775 ft | 85 kts | 13° |
| 2026-04-16 10:13 | 31.79132 | 35.46347 | 707 ft | 81 kts | 87° |
| 2026-04-16 10:13 | 31.79184 | 35.46991 | 696 ft | 77 kts | 90° |
| 2026-04-16 10:13 | 31.79213 | 35.47623 | 662 ft | 77 kts | 89° |
| 2026-04-16 10:13 | 31.79259 | 35.48231 | 697 ft | 73 kts | 84° |
| 2026-04-16 10:14 | 31.79370 | 35.48805 | 705 ft | 70 kts | 79° |
| 2026-04-16 10:14 | 31.79543 | 35.49335 | 744 ft | 73 kts | 72° |
| 2026-04-16 10:14 | 31.79751 | 35.49875 | 779 ft | 71 kts | 71° |
| 2026-04-16 10:14 | 31.80129 | 35.50265 | 809 ft | 76 kts | 40° |
| 2026-04-16 10:15 | 31.80579 | 35.50606 | 788 ft | 78 kts | 38° |
| 2026-04-16 10:15 | 31.81065 | 35.50905 | 789 ft | 79 kts | 34° |
| 2026-04-16 10:15 | 31.81548 | 35.51198 | 787 ft | 77 kts | 36° |
| 2026-04-16 10:15 | 31.82029 | 35.51508 | 773 ft | 77 kts | 37° |
| 2026-04-16 10:16 | 31.82493 | 35.51800 | 766 ft | 78 kts | 36° |
| 2026-04-16 10:16 | 31.82983 | 35.52090 | 833 ft | 79 kts | 34° |
| 2026-04-16 10:16 | 31.83490 | 35.52323 | 937 ft | 78 kts | 13° |
| 2026-04-16 10:16 | 31.84079 | 35.52253 | 915 ft | 93 kts | 353° |
| 2026-04-16 10:17 | 31.84716 | 35.52093 | 881 ft | 94 kts | 353° |
| 2026-04-16 10:17 | 31.85360 | 35.51941 | 829 ft | 96 kts | 353° |
| 2026-04-16 10:17 | 31.86006 | 35.51754 | 800 ft | 95 kts | 348° |
| 2026-04-16 10:17 | 31.86617 | 35.51507 | 819 ft | 95 kts | 343° |
| 2026-04-16 10:18 | 31.87243 | 35.51269 | 799 ft | 94 kts | 351° |
| 2026-04-16 10:18 | 31.87876 | 35.51086 | 794 ft | 94 kts | 351° |
| 2026-04-16 10:18 | 31.88438 | 35.50900 | 837 ft | 91 kts | 344° |
| 2026-04-16 10:18 | 31.89012 | 35.50517 | 754 ft | 96 kts | 333° |
| 2026-04-16 10:19 | 31.89449 | 35.49941 | 725 ft | 96 kts | 300° |
| 2026-04-16 10:19 | 31.89776 | 35.49276 | 794 ft | 93 kts | 298° |
| 2026-04-16 10:19 | 31.90076 | 35.48586 | 749 ft | 93 kts | 297° |
| 2026-04-16 10:19 | 31.90381 | 35.47917 | 753 ft | 95 kts | 300° |
| 2026-04-16 10:20 | 31.90769 | 35.47281 | 704 ft | 97 kts | 306° |
| 2026-04-16 10:20 | 31.91099 | 35.46580 | 688 ft | 98 kts | 290° |
| 2026-04-16 10:20 | 31.91469 | 35.45960 | 673 ft | 93 kts | 347° |
| 2026-04-16 10:20 | 31.92065 | 35.46099 | 633 ft | 88 kts | 28° |
| 2026-04-16 10:21 | 31.92609 | 35.46383 | 632 ft | 82 kts | 33° |
| 2026-04-16 10:21 | 31.93114 | 35.46655 | 665 ft | 79 kts | 32° |
| 2026-04-16 10:21 | 31.93635 | 35.46871 | 674 ft | 83 kts | 10° |
| 2026-04-16 10:21 | 31.94223 | 35.46765 | 686 ft | 86 kts | 356° |
| 2026-04-16 10:22 | 31.94797 | 35.46718 | 726 ft | 84 kts | 3° |
| 2026-04-16 10:22 | 31.95393 | 35.46684 | 748 ft | 86 kts | 2° |
| 2026-04-16 10:22 | 31.96001 | 35.46630 | 774 ft | 87 kts | 360° |
| 2026-04-16 10:22 | 31.96606 | 35.46565 | 768 ft | 88 kts | 1° |
| 2026-04-16 10:23 | 31.97218 | 35.46508 | 754 ft | 88 kts | 1° |
| 2026-04-16 10:23 | 31.97840 | 35.46509 | 693 ft | 88 kts | 8° |
| 2026-04-16 10:23 | 31.98447 | 35.46540 | 733 ft | 88 kts | 6° |
| 2026-04-16 10:23 | 31.99051 | 35.46537 | 689 ft | 84 kts | 6° |
| 2026-04-16 10:24 | 31.99644 | 35.46579 | 730 ft | 87 kts | 8° |
| 2026-04-16 10:24 | 32.00231 | 35.46605 | 763 ft | 83 kts | 2° |
| 2026-04-16 10:24 | 32.00825 | 35.46575 | 676 ft | 87 kts | 5° |
| 2026-04-16 10:24 | 32.01425 | 35.46550 | 633 ft | 87 kts | 1° |
| 2026-04-16 10:25 | 32.02036 | 35.46551 | 615 ft | 91 kts | 5° |
| 2026-04-16 10:25 | 32.02675 | 35.46587 | 478 ft | 93 kts | 10° |
| 2026-04-16 10:25 | 32.03294 | 35.46634 | 539 ft | 86 kts | 8° |
| 2026-04-16 10:25 | 32.03886 | 35.46628 | 595 ft | 84 kts | 1° |
| 2026-04-16 10:26 | 32.04451 | 35.46710 | 546 ft | 82 kts | 38° |
| 2026-04-16 10:26 | 32.04913 | 35.47086 | 540 ft | 81 kts | 39° |
| 2026-04-16 10:26 | 32.05358 | 35.47461 | 579 ft | 80 kts | 42° |
| 2026-04-16 10:26 | 32.05786 | 35.47869 | 617 ft | 77 kts | 44° |
| 2026-04-16 10:27 | 32.06192 | 35.48254 | 660 ft | 73 kts | 43° |
| 2026-04-16 10:27 | 32.06589 | 35.48610 | 706 ft | 70 kts | 43° |
| 2026-04-16 10:27 | 32.06987 | 35.48930 | 745 ft | 68 kts | 39° |
| 2026-04-16 10:27 | 32.07413 | 35.49227 | 748 ft | 75 kts | 34° |
| 2026-04-16 10:28 | 32.07863 | 35.49540 | 788 ft | 73 kts | 38° |
| 2026-04-16 10:28 | 32.08165 | 35.49698 | 838 ft | 74 kts | 15° |
| 2026-04-16 10:28 | 32.08703 | 35.49830 | 835 ft | 81 kts | 17° |
| 2026-04-16 10:28 | 32.09260 | 35.49981 | 863 ft | 83 kts | 21° |
| 2026-04-16 10:29 | 32.09816 | 35.50186 | 862 ft | 85 kts | 22° |
| 2026-04-16 10:29 | 32.10391 | 35.50386 | 834 ft | 87 kts | 21° |
| 2026-04-16 10:29 | 32.11015 | 35.50576 | 823 ft | 105 kts | 19° |
| 2026-04-16 10:29 | 32.11681 | 35.50789 | 771 ft | 96 kts | 20° |
| 2026-04-16 10:30 | 32.12311 | 35.50942 | 781 ft | 89 kts | 16° |
| 2026-04-16 10:30 | 32.12919 | 35.50936 | 775 ft | 94 kts | 347° |
| 2026-04-16 10:30 | 32.13481 | 35.50506 | 716 ft | 99 kts | 315° |
| 2026-04-16 10:30 | 32.13894 | 35.49874 | 704 ft | 97 kts | 302° |
| 2026-04-16 10:31 | 32.14202 | 35.49184 | 697 ft | 96 kts | 297° |
| 2026-04-16 10:31 | 32.14486 | 35.48495 | 778 ft | 87 kts | 294° |
| 2026-04-16 10:31 | 32.14689 | 35.47852 | 904 ft | 81 kts | 288° |
| 2026-04-16 10:31 | 32.14873 | 35.47242 | 1016 ft | 77 kts | 288° |
| 2026-04-16 10:32 | 32.15042 | 35.46653 | 1154 ft | 74 kts | 291° |
| 2026-04-16 10:32 | 32.15242 | 35.46085 | 1305 ft | 77 kts | 291° |
| 2026-04-16 10:32 | 32.15456 | 35.45487 | 1456 ft | 79 kts | 295° |
| 2026-04-16 10:32 | 32.15659 | 35.44912 | 1598 ft | 78 kts | 292° |
| 2026-04-16 10:33 | 32.15893 | 35.44303 | 1761 ft | 82 kts | 293° |
| 2026-04-16 10:33 | 32.16078 | 35.43645 | 1886 ft | 86 kts | 288° |
| 2026-04-16 10:33 | 32.16226 | 35.42941 | 2047 ft | 91 kts | 276° |
| 2026-04-16 10:33 | 32.16283 | 35.42187 | 2116 ft | 94 kts | 266° |
| 2026-04-16 10:34 | 32.16243 | 35.41402 | 2089 ft | 99 kts | 272° |
| 2026-04-16 10:34 | 32.16310 | 35.40648 | 2307 ft | 83 kts | 278° |
| 2026-04-16 10:34 | 32.16481 | 35.40024 | 2487 ft | 80 kts | 294° |
| 2026-04-16 10:34 | 32.16735 | 35.39442 | 2569 ft | 83 kts | 294° |
| 2026-04-16 10:35 | 32.16961 | 35.38837 | 2749 ft | 79 kts | 294° |
| 2026-04-16 10:35 | 32.17173 | 35.38203 | 2818 ft | 85 kts | 285° |
| 2026-04-16 10:35 | 32.17303 | 35.37477 | 2830 ft | 97 kts | 272° |
| 2026-04-16 10:35 | 32.17333 | 35.36664 | 2848 ft | 98 kts | 269° |
| 2026-04-16 10:36 | 32.17359 | 35.35867 | 2804 ft | 98 kts | 273° |
| 2026-04-16 10:36 | 32.17384 | 35.35073 | 2769 ft | 94 kts | 269° |
| 2026-04-16 10:36 | 32.17434 | 35.34292 | 2715 ft | 96 kts | 275° |
| 2026-04-16 10:36 | 32.17397 | 35.33537 | 2755 ft | 85 kts | 261° |
| 2026-04-16 10:37 | 32.17313 | 35.32830 | 2722 ft | 91 kts | 254° |
| 2026-04-16 10:37 | 32.17185 | 35.32106 | 2701 ft | 92 kts | 259° |
| 2026-04-16 10:37 | 32.17059 | 35.31386 | 2707 ft | 89 kts | 254° |
| 2026-04-16 10:37 | 32.16944 | 35.30680 | 2765 ft | 83 kts | 261° |
| 2026-04-16 10:38 | 32.16851 | 35.29992 | 2775 ft | 87 kts | 260° |
| 2026-04-16 10:38 | 32.16762 | 35.29254 | 2731 ft | 90 kts | 264° |
| 2026-04-16 10:38 | 32.16739 | 35.28528 | 2763 ft | 87 kts | 269° |
| 2026-04-16 10:38 | 32.16744 | 35.27797 | 2750 ft | 92 kts | 270° |
| 2026-04-16 10:39 | 32.16794 | 35.27039 | 2764 ft | 93 kts | 284° |
| 2026-04-16 10:39 | 32.17030 | 35.26316 | 2770 ft | 94 kts | 294° |
| 2026-04-16 10:39 | 32.17287 | 35.25614 | 2750 ft | 93 kts | 295° |
| 2026-04-16 10:39 | 32.17592 | 35.24930 | 2698 ft | 95 kts | 301° |
| 2026-04-16 10:40 | 32.17914 | 35.24258 | 2674 ft | 94 kts | 298° |
| 2026-04-16 10:40 | 32.18211 | 35.23573 | 2632 ft | 94 kts | 296° |
| 2026-04-16 10:40 | 32.18473 | 35.22861 | 2579 ft | 93 kts | 291° |
| 2026-04-16 10:40 | 32.18727 | 35.22141 | 2561 ft | 98 kts | 296° |
| 2026-04-16 10:41 | 32.19025 | 35.21454 | 2557 ft | 93 kts | 298° |
| 2026-04-16 10:41 | 32.19319 | 35.20788 | 2506 ft | 92 kts | 296° |
| 2026-04-16 10:41 | 32.19591 | 35.20104 | 2476 ft | 88 kts | 296° |
| 2026-04-16 10:41 | 32.19930 | 35.19501 | 2495 ft | 86 kts | 307° |
| 2026-04-16 10:42 | 32.20287 | 35.18965 | 2583 ft | 82 kts | 307° |
| 2026-04-16 10:42 | 32.20664 | 35.18422 | 2583 ft | 89 kts | 313° |
| 2026-04-16 10:42 | 32.21075 | 35.17919 | 2702 ft | 82 kts | 317° |
| 2026-04-16 10:42 | 32.21471 | 35.17437 | 2738 ft | 88 kts | 330° |
| 2026-04-16 10:43 | 32.22082 | 35.17289 | 2707 ft | 93 kts | 359° |
| 2026-04-16 10:43 | 32.22729 | 35.17208 | 2715 ft | 94 kts | 358° |
| 2026-04-16 10:43 | 32.23388 | 35.17088 | 2673 ft | 97 kts | 355° |
| 2026-04-16 10:43 | 32.24044 | 35.16881 | 2532 ft | 102 kts | 341° |
| 2026-04-16 10:44 | 32.24490 | 35.16287 | 2524 ft | 99 kts | 288° |
| 2026-04-16 10:44 | 32.24567 | 35.15506 | 2529 ft | 97 kts | 262° |
| 2026-04-16 10:44 | 32.24388 | 35.14744 | 2498 ft | 98 kts | 256° |
| 2026-04-16 10:44 | 32.24270 | 35.13948 | 2469 ft | 102 kts | 260° |
| 2026-04-16 10:45 | 32.24294 | 35.13101 | 2391 ft | 104 kts | 275° |
| 2026-04-16 10:45 | 32.24357 | 35.12252 | 2307 ft | 102 kts | 278° |
| 2026-04-16 10:45 | 32.24509 | 35.11457 | 2354 ft | 94 kts | 281° |
| 2026-04-16 10:45 | 32.24597 | 35.10686 | 2358 ft | 98 kts | 274° |
| 2026-04-16 10:46 | 32.24654 | 35.09872 | 2344 ft | 101 kts | 269° |
| 2026-04-16 10:46 | 32.24627 | 35.09066 | 2380 ft | 95 kts | 266° |
| 2026-04-16 10:46 | 32.24642 | 35.08273 | 2341 ft | 99 kts | 275° |
| 2026-04-16 10:46 | 32.24730 | 35.07461 | 2339 ft | 98 kts | 278° |
| 2026-04-16 10:47 | 32.24948 | 35.06675 | 2260 ft | 101 kts | 281° |
| 2026-04-16 10:47 | 32.25031 | 35.05858 | 2214 ft | 103 kts | 273° |
| 2026-04-16 10:47 | 32.24975 | 35.05062 | 2317 ft | 83 kts | 264° |
| 2026-04-16 10:47 | 32.24964 | 35.04420 | 2411 ft | 76 kts | 266° |
| 2026-04-16 10:48 | 32.24971 | 35.03750 | 2417 ft | 84 kts | 268° |
| 2026-04-16 10:48 | 32.24981 | 35.03102 | 2447 ft | 80 kts | 260° |
| 2026-04-16 10:48 | 32.24979 | 35.02380 | 2405 ft | 98 kts | 270° |
| 2026-04-16 10:48 | 32.25106 | 35.01592 | 2351 ft | 102 kts | 279° |
| 2026-04-16 10:49 | 32.25297 | 35.00751 | 2235 ft | 102 kts | 283° |
| 2026-04-16 10:49 | 32.25522 | 34.99902 | 2114 ft | 109 kts | 285° |
| 2026-04-16 10:49 | 32.25755 | 34.99029 | 1841 ft | 108 kts | 285° |
| 2026-04-16 10:49 | 32.25924 | 34.98218 | 1401 ft | 99 kts | 279° |
| 2026-04-16 10:50 | 32.26049 | 34.97443 | 953 ft | 96 kts | 281° |
| 2026-04-16 10:50 | 32.26197 | 34.96708 | 665 ft | 84 kts | 287° |
| 2026-04-16 10:50 | 32.26324 | 34.96120 | 553 ft | 70 kts | 288° |
| 2026-04-16 10:50 | 32.26303 | 34.95468 | 396 ft | 86 kts | 256° |
| 2026-04-16 10:51 | 32.26099 | 34.94853 | 351 ft | 79 kts | 237° |
| 2026-04-16 10:51 | 32.25806 | 34.94376 | 373 ft | 62 kts | 205° |
| 2026-04-16 10:51 | 32.25463 | 34.94356 | 399 ft | 47 kts | 147° |
| 2026-04-16 10:51 | 32.25220 | 34.94628 | 457 ft | 47 kts | 94° |
| 2026-04-16 10:52 | 32.25381 | 34.94869 | 444 ft | 45 kts | 7° |
| 2026-04-16 10:52 | 32.25727 | 34.94767 | 419 ft | 55 kts | 355° |
| 2026-04-16 10:52 | 32.26053 | 34.94878 | 310 ft | 51 kts | 33° |
| 2026-04-16 10:52 | 32.26343 | 34.95070 | 191 ft | 45 kts | 33° |
| 2026-04-16 10:53 | 32.26464 | 34.95159 | 178 ft | 0 kts | 40° |
| 2026-04-16 10:53 | 32.26465 | 34.95160 | 178 ft | 0 kts | 19° |
| 2026-04-16 10:53 | 32.26420 | 34.95125 | 179 ft | 20 kts | 207° |
| 2026-04-16 10:53 | 32.26374 | 34.95059 | 180 ft | 0 kts | 301° |
| 2026-04-16 10:54 | 32.26375 | 34.95055 | 181 ft | 1 kts | 260° |
| 2026-04-16 10:54 | 32.26374 | 34.95050 | 181 ft | 1 kts | 270° |
| 2026-04-16 10:54 | 32.26373 | 34.95045 | 181 ft | 1 kts | 264° |
| 2026-04-16 10:54 | 32.26372 | 34.95041 | 182 ft | 1 kts | 239° |
| 2026-04-16 10:55 | 32.26371 | 34.95036 | 182 ft | 0 kts | 263° |
| 2026-04-16 10:55 | 32.26370 | 34.95034 | 182 ft | 0 kts | 257° |